Time,TemperatureF,DewpointF,PressureIn,WindDirection,WindDirectionDegrees,WindSpeedMPH,WindSpeedGustMPH,Humidity,HourlyPrecipIn,Conditions,Clouds,dailyrainin,SolarRadiationWatts/m^2,SoftwareType,DateUTC
2013-04-13 00:15:00,73.0,62.0,29.96,NE,38,6.0,13.0,69,0.00,,,0.00,0.000000,,2013-04-13 10:15:00,
2013-04-13 00:23:00,73.0,62.0,29.96,NE,38,6.0,13.0,69,0.00,,,0.00,0.000000,,2013-04-13 10:23:00,
2013-04-13 00:35:00,73.0,62.0,29.96,NE,38,6.0,13.0,69,0.00,,,0.00,0.000000,,2013-04-13 10:35:00,
2013-04-13 00:44:00,73.0,62.0,29.96,NE,38,6.0,13.0,69,0.00,,,0.00,0.000000,,2013-04-13 10:44:00,
2013-04-13 01:13:00,76.0,65.0,29.98,NE,48,4.0,11.0,68,0.00,,,0.00,0.000000,,2013-04-13 11:13:00,
2013-04-13 01:23:00,76.0,65.0,29.98,NE,48,4.0,11.0,68,0.00,,,0.00,0.000000,,2013-04-13 11:23:00,
2013-04-13 01:43:00,76.0,65.0,29.98,NE,48,4.0,11.0,68,0.00,,,0.00,0.000000,,2013-04-13 11:43:00,
2013-04-13 01:52:00,76.0,65.0,29.98,NE,48,4.0,11.0,68,0.00,,,0.00,0.000000,,2013-04-13 11:52:00,
2013-04-13 02:23:00,75.0,64.0,29.97,WNW,282,4.0,6.0,69,0.00,,,0.00,0.000000,,2013-04-13 12:23:00,
2013-04-13 02:34:00,75.0,64.0,29.97,WNW,282,4.0,6.0,69,0.00,,,0.00,0.000000,,2013-04-13 12:34:00,
2013-04-13 02:53:00,72.0,62.0,29.96,NW,313,2.0,5.0,70,0.00,,,0.00,0.000000,,2013-04-13 12:53:00,
2013-04-13 03:24:00,72.0,62.0,29.96,NW,313,2.0,5.0,70,0.00,,,0.00,0.000000,,2013-04-13 13:24:00,
2013-04-13 03:33:00,72.0,62.0,29.96,NW,313,2.0,5.0,70,0.00,,,0.00,0.000000,,2013-04-13 13:33:00,
2013-04-13 03:45:00,72.0,62.0,29.96,NW,313,2.0,5.0,70,0.00,,,0.00,0.000000,,2013-04-13 13:45:00,
2013-04-13 04:23:00,74.0,65.0,29.95,North,6,3.0,6.0,74,0.00,,,0.00,0.000000,,2013-04-13 14:23:00,
2013-04-13 04:35:00,74.0,65.0,29.95,North,6,3.0,6.0,74,0.00,,,0.00,0.000000,,2013-04-13 14:35:00,
2013-04-13 04:44:00,74.0,65.0,29.95,North,6,3.0,6.0,74,0.00,,,0.00,0.000000,,2013-04-13 14:44:00,
2013-04-13 04:53:00,73.0,64.0,29.96,NE,39,2.0,6.0,74,0.00,,,0.00,0.000000,,2013-04-13 14:53:00,
2013-04-13 05:26:00,73.0,64.0,29.96,NE,39,2.0,6.0,74,0.00,,,0.00,0.000000,,2013-04-13 15:26:00,
2013-04-13 05:34:00,73.0,64.0,29.96,NE,39,2.0,6.0,74,0.00,,,0.00,0.000000,,2013-04-13 15:34:00,
2013-04-13 05:43:00,73.0,64.0,29.96,NE,39,2.0,6.0,74,0.00,,,0.00,0.000000,,2013-04-13 15:43:00,
2013-04-13 05:53:00,72.0,64.0,29.98,ENE,60,2.0,5.0,76,0.00,,,0.00,0.000000,,2013-04-13 15:53:00,
2013-04-13 06:24:00,72.0,64.0,29.98,ENE,60,2.0,5.0,76,0.00,,,0.00,0.000000,,2013-04-13 16:24:00,
2013-04-13 06:34:00,72.0,64.0,29.98,ENE,60,2.0,5.0,76,0.00,,,0.00,0.000000,,2013-04-13 16:34:00,
2013-04-13 06:44:00,72.0,64.0,29.98,ENE,60,2.0,5.0,76,0.00,,,0.00,0.000000,,2013-04-13 16:44:00,
2013-04-13 07:19:00,72.0,65.0,29.96,NE,42,5.0,7.0,78,0.00,,,0.00,19.000000,,2013-04-13 17:19:00,
2013-04-13 07:35:00,72.0,65.0,29.96,NE,42,5.0,7.0,78,0.00,,,0.00,19.000000,,2013-04-13 17:35:00,
2013-04-13 07:43:00,72.0,65.0,29.96,NE,42,5.0,7.0,78,0.00,,,0.00,19.000000,,2013-04-13 17:43:00,
2013-04-13 07:52:00,72.0,65.0,29.96,NE,42,5.0,7.0,78,0.00,,,0.00,19.000000,,2013-04-13 17:52:00,
2013-04-13 08:24:00,74.0,65.0,29.94,ENE,72,14.0,22.0,73,0.00,,,0.00,56.000000,,2013-04-13 18:24:00,
2013-04-13 08:32:00,74.0,65.0,29.94,ENE,72,14.0,22.0,73,0.00,,,0.00,56.000000,,2013-04-13 18:32:00,
2013-04-13 08:42:00,74.0,65.0,29.94,ENE,72,14.0,22.0,73,0.00,,,0.00,56.000000,,2013-04-13 18:42:00,
2013-04-13 08:52:00,74.0,65.0,29.94,ENE,72,14.0,22.0,73,0.00,,,0.00,56.000000,,2013-04-13 18:52:00,
2013-04-13 09:22:00,77.0,67.0,29.89,ENE,71,20.0,35.0,72,0.00,,,-99.99,248.000000,,2013-04-13 19:22:00,
2013-04-13 09:32:00,77.0,67.0,29.89,ENE,71,20.0,35.0,72,0.00,,,-99.99,248.000000,,2013-04-13 19:32:00,
2013-04-13 09:42:00,77.0,67.0,29.89,ENE,71,20.0,35.0,72,0.00,,,-99.99,248.000000,,2013-04-13 19:42:00,
2013-04-13 09:52:00,77.0,67.0,29.89,ENE,71,20.0,35.0,72,0.00,,,-99.99,248.000000,,2013-04-13 19:52:00,
2013-04-13 10:22:00,80.0,68.0,29.92,ENE,78,17.0,36.0,66,0.00,,,0.00,566.000000,,2013-04-13 20:22:00,
2013-04-13 10:32:00,80.0,68.0,29.92,ENE,78,17.0,36.0,66,0.00,,,0.00,566.000000,,2013-04-13 20:32:00,
2013-04-13 10:42:00,80.0,68.0,29.92,ENE,78,17.0,36.0,66,0.00,,,0.00,566.000000,,2013-04-13 20:42:00,
2013-04-13 10:52:00,80.0,68.0,29.92,ENE,78,17.0,36.0,66,0.00,,,0.00,566.000000,,2013-04-13 20:52:00,
2013-04-13 11:12:00,80.0,67.0,29.91,East,85,17.0,31.0,65,0.00,,,0.00,903.000000,,2013-04-13 21:12:00,
2013-04-13 11:22:00,80.0,67.0,29.91,East,85,17.0,31.0,65,0.00,,,0.00,903.000000,,2013-04-13 21:22:00,
2013-04-13 11:32:00,80.0,67.0,29.91,East,85,17.0,31.0,65,0.00,,,0.00,903.000000,,2013-04-13 21:32:00,
2013-04-13 11:43:00,80.0,67.0,29.91,East,85,17.0,31.0,65,0.00,,,0.00,903.000000,,2013-04-13 21:43:00,
2013-04-13 11:52:00,80.0,67.0,29.91,East,85,17.0,31.0,65,0.00,,,0.00,903.000000,,2013-04-13 21:52:00,
2013-04-13 12:22:00,83.0,68.0,29.91,East,83,20.0,33.0,60,0.00,,,0.00,1117.000000,,2013-04-13 22:22:00,
2013-04-13 12:33:00,83.0,68.0,29.91,East,83,20.0,33.0,60,0.00,,,0.00,1117.000000,,2013-04-13 22:33:00,
2013-04-13 12:42:00,83.0,68.0,29.91,East,83,20.0,33.0,60,0.00,,,0.00,1117.000000,,2013-04-13 22:42:00,
2013-04-13 12:52:00,83.0,68.0,29.91,East,83,20.0,33.0,60,0.00,,,0.00,1117.000000,,2013-04-13 22:52:00,
2013-04-13 13:12:00,84.0,68.0,29.93,East,90,16.0,31.0,58,0.00,,,0.00,1142.000000,,2013-04-13 23:12:00,
2013-04-13 13:22:00,84.0,68.0,29.93,East,90,16.0,31.0,58,0.00,,,0.00,1142.000000,,2013-04-13 23:22:00,
2013-04-13 13:32:00,84.0,68.0,29.93,East,90,16.0,31.0,58,0.00,,,0.00,1142.000000,,2013-04-13 23:32:00,
2013-04-13 13:41:00,84.0,68.0,29.93,East,90,16.0,31.0,58,0.00,,,0.00,1142.000000,,2013-04-13 23:41:00,
2013-04-13 13:52:00,84.0,68.0,29.93,East,90,16.0,31.0,58,0.00,,,0.00,1142.000000,,2013-04-13 23:52:00,
2013-04-13 14:12:00,84.0,68.0,29.93,ESE,109,14.0,28.0,59,0.00,,,0.00,1173.000000,,2013-04-14 00:12:00,
2013-04-13 14:22:00,84.0,68.0,29.93,ESE,109,14.0,28.0,59,0.00,,,0.00,1173.000000,,2013-04-14 00:22:00,
2013-04-13 14:32:00,84.0,68.0,29.93,ESE,109,14.0,28.0,59,0.00,,,0.00,1173.000000,,2013-04-14 00:32:00,
2013-04-13 14:42:00,84.0,68.0,29.93,ESE,109,14.0,28.0,59,0.00,,,0.00,1173.000000,,2013-04-14 00:42:00,
2013-04-13 14:52:00,84.0,68.0,29.93,ESE,109,14.0,28.0,59,0.00,,,0.00,1173.000000,,2013-04-14 00:52:00,
2013-04-13 15:12:00,83.0,67.0,29.94,SE,132,10.0,23.0,58,0.00,,,-99.99,967.000000,,2013-04-14 01:12:00,
2013-04-13 15:22:00,83.0,67.0,29.94,SE,132,10.0,23.0,58,0.00,,,-99.99,967.000000,,2013-04-14 01:22:00,
2013-04-13 15:32:00,83.0,67.0,29.94,SE,132,10.0,23.0,58,0.00,,,-99.99,967.000000,,2013-04-14 01:32:00,
2013-04-13 15:42:00,83.0,67.0,29.94,SE,132,10.0,23.0,58,0.00,,,-99.99,967.000000,,2013-04-14 01:42:00,
2013-04-13 15:52:00,83.0,67.0,29.94,SE,132,10.0,23.0,58,0.00,,,-99.99,967.000000,,2013-04-14 01:52:00,
2013-04-13 16:22:00,84.0,68.0,29.92,SE,138,7.0,17.0,58,0.00,,,-99.99,752.000000,,2013-04-14 02:22:00,
2013-04-13 16:32:00,84.0,68.0,29.92,SE,138,7.0,17.0,58,0.00,,,-99.99,752.000000,,2013-04-14 02:32:00,
2013-04-13 16:42:00,84.0,68.0,29.92,SE,138,7.0,17.0,58,0.00,,,-99.99,752.000000,,2013-04-14 02:42:00,
2013-04-13 16:52:00,84.0,68.0,29.92,SE,138,7.0,17.0,58,0.00,,,-99.99,752.000000,,2013-04-14 02:52:00,
2013-04-13 17:12:00,79.0,66.0,29.93,SSW,199,4.0,10.0,64,0.00,,,0.00,377.000000,,2013-04-14 03:12:00,
2013-04-13 17:22:00,79.0,66.0,29.93,SSW,199,4.0,10.0,64,0.00,,,0.00,377.000000,,2013-04-14 03:22:00,
2013-04-13 17:33:00,79.0,66.0,29.93,SSW,199,4.0,10.0,64,0.00,,,0.00,377.000000,,2013-04-14 03:33:00,
2013-04-13 17:42:00,79.0,66.0,29.93,SSW,199,4.0,10.0,64,0.00,,,0.00,377.000000,,2013-04-14 03:42:00,
2013-04-13 17:52:00,79.0,66.0,29.93,SSW,199,4.0,10.0,64,0.00,,,0.00,377.000000,,2013-04-14 03:52:00,
2013-04-13 18:22:00,79.0,67.0,29.94,SW,231,4.0,8.0,67,0.00,,,0.00,152.000000,,2013-04-14 04:22:00,
2013-04-13 18:32:00,79.0,67.0,29.94,SW,231,4.0,8.0,67,0.00,,,0.00,152.000000,,2013-04-14 04:32:00,
2013-04-13 18:42:00,79.0,67.0,29.94,SW,231,4.0,8.0,67,0.00,,,0.00,152.000000,,2013-04-14 04:42:00,
2013-04-13 18:52:00,79.0,67.0,29.94,SW,231,4.0,8.0,67,0.00,,,0.00,152.000000,,2013-04-14 04:52:00,
2013-04-13 19:12:00,77.0,67.0,29.96,WSW,256,5.0,8.0,71,0.00,,,0.00,31.000000,,2013-04-14 05:12:00,
2013-04-13 19:22:00,77.0,67.0,29.96,WSW,256,5.0,8.0,71,0.00,,,0.00,31.000000,,2013-04-14 05:22:00,
2013-04-13 19:32:00,77.0,67.0,29.96,WSW,256,5.0,8.0,71,0.00,,,0.00,31.000000,,2013-04-14 05:32:00,
2013-04-13 19:42:00,77.0,67.0,29.96,WSW,256,5.0,8.0,71,0.00,,,0.00,31.000000,,2013-04-14 05:42:00,
2013-04-13 19:52:00,77.0,67.0,29.96,WSW,256,5.0,8.0,71,0.00,,,0.00,31.000000,,2013-04-14 05:52:00,
2013-04-13 20:22:00,76.0,67.0,29.95,North,351,1.0,9.0,75,0.00,,,0.00,0.000000,,2013-04-14 06:22:00,
2013-04-13 20:32:00,76.0,67.0,29.95,North,351,1.0,9.0,75,0.00,,,0.00,0.000000,,2013-04-14 06:32:00,
2013-04-13 20:42:00,76.0,67.0,29.95,North,351,1.0,9.0,75,0.00,,,0.00,0.000000,,2013-04-14 06:42:00,
2013-04-13 20:52:00,76.0,67.0,29.95,North,351,1.0,9.0,75,0.00,,,0.00,0.000000,,2013-04-14 06:52:00,
2013-04-13 21:12:00,74.0,66.0,29.96,North,2,3.0,6.0,76,0.00,,,0.00,0.000000,,2013-04-14 07:12:00,
2013-04-13 21:22:00,74.0,66.0,29.96,North,2,3.0,6.0,76,0.00,,,0.00,0.000000,,2013-04-14 07:22:00,
2013-04-13 21:32:00,74.0,66.0,29.96,North,2,3.0,6.0,76,0.00,,,0.00,0.000000,,2013-04-14 07:32:00,
2013-04-13 21:42:00,74.0,66.0,29.96,North,2,3.0,6.0,76,0.00,,,0.00,0.000000,,2013-04-14 07:42:00,
2013-04-13 21:52:00,74.0,66.0,29.96,North,2,3.0,6.0,76,0.00,,,0.00,0.000000,,2013-04-14 07:52:00,
2013-04-13 22:22:00,75.0,67.0,29.99,SSE,149,2.0,4.0,75,0.00,,,0.00,0.000000,,2013-04-14 08:22:00,
2013-04-13 22:32:00,75.0,67.0,29.99,SSE,149,2.0,4.0,75,0.00,,,0.00,0.000000,,2013-04-14 08:32:00,
2013-04-13 22:42:00,75.0,67.0,29.99,SSE,149,2.0,4.0,75,0.00,,,0.00,0.000000,,2013-04-14 08:42:00,
2013-04-13 22:52:00,75.0,67.0,29.99,SSE,149,2.0,4.0,75,0.00,,,0.00,0.000000,,2013-04-14 08:52:00,
2013-04-13 22:53:00,74.0,66.0,29.98,ESE,123,5.0,7.0,76,0.00,,,0.00,0.000000,,2013-04-14 08:53:00,
2013-04-13 23:12:00,74.0,66.0,29.98,ESE,123,5.0,7.0,76,0.00,,,0.00,0.000000,,2013-04-14 09:12:00,
2013-04-13 23:22:00,74.0,66.0,29.98,ESE,123,5.0,7.0,76,0.00,,,0.00,0.000000,,2013-04-14 09:22:00,
2013-04-13 23:32:00,74.0,66.0,29.98,ESE,123,5.0,7.0,76,0.00,,,0.00,0.000000,,2013-04-14 09:32:00,
2013-04-13 23:42:00,74.0,66.0,29.98,ESE,123,5.0,7.0,76,0.00,,,0.00,0.000000,,2013-04-14 09:42:00,